Time;durP1;ratioP1;P1;durP2;ratioP2;P2;SDS_P1;SDS_P2;PMS_P1;PMS_P2;Temp;Humidity;BMP_temperature;BMP_pressure;BME280_temperature;BME280_humidity;BME280_pressure;Samples;Min_cycle;Max_cycle;Signal;HPM_P1;HPM_P2
2023/09/25 00:01:04;;;;;;;10.32;0.90;;;;;;;10.70;49.30;102279.09;5021356;28;20037;-69
2023/09/25 00:03:30;;;;;;;2.30;0.40;;;;;;;10.67;49.21;102268.69;5021126;28;20045;-68
2023/09/25 00:05:55;;;;;;;4.10;0.73;;;;;;;10.55;49.37;102268.03;5035614;28;20112;-68
2023/09/25 00:08:21;;;;;;;7.32;0.70;;;;;;;10.53;49.54;102267.19;5036342;28;20586;-68
2023/09/25 00:10:47;;;;;;;0.90;0.43;;;;;;;10.52;49.66;102255.00;5022847;28;20017;-69
2023/09/25 00:13:12;;;;;;;4.10;0.77;;;;;;;10.49;49.76;102260.28;5018628;28;20037;-68
2023/09/25 00:15:47;;;;;;;1.75;0.47;;;;;;;10.52;49.74;102260.22;5037695;28;20163;-68
2023/09/25 00:18:14;;;;;;;2.60;0.70;;;;;;;10.40;50.05;102260.47;5015776;28;20701;-68
2023/09/25 00:20:40;;;;;;;3.85;1.45;;;;;;;10.48;49.54;102263.81;5027534;28;20743;-68
2023/09/25 00:23:06;;;;;;;1.50;0.57;;;;;;;10.46;49.64;102265.59;5020449;28;20048;-68
2023/09/25 00:25:32;;;;;;;2.40;0.50;;;;;;;10.37;49.90;102269.22;5019384;28;20028;-68
2023/09/25 00:27:58;;;;;;;3.22;0.70;;;;;;;10.40;50.19;102271.75;5019842;28;20063;-68
2023/09/25 00:30:25;;;;;;;1.10;0.55;;;;;;;10.39;49.89;102274.41;5026012;28;20040;-68
2023/09/25 00:32:51;;;;;;;2.30;0.70;;;;;;;10.30;50.31;102271.94;5025616;28;20564;-68
2023/09/25 00:35:17;;;;;;;2.40;0.63;;;;;;;10.34;50.23;102277.09;5023400;28;20029;-68
2023/09/25 00:37:43;;;;;;;3.60;0.70;;;;;;;10.37;49.86;102274.44;5026623;28;20033;-68
2023/09/25 00:40:17;;;;;;;1.42;0.40;;;;;;;10.41;49.74;102272.63;5034720;28;20411;-68
2023/09/25 00:42:49;;;;;;;2.17;0.70;;;;;;;10.21;50.13;102270.34;5035165;28;20037;-70
2023/09/25 00:45:14;;;;;;;4.05;0.80;;;;;;;10.37;50.01;102263.09;5023043;28;20086;-69
2023/09/25 00:47:42;;;;;;;1.98;0.80;;;;;;;10.18;50.40;102271.25;5023346;28;20044;-72
2023/09/25 00:50:08;;;;;;;1.58;0.75;;;;;;;10.29;50.03;102265.84;5025004;28;20504;-71
2023/09/25 00:52:37;;;;;;;1.67;0.88;;;;;;;10.12;50.15;102265.25;5024679;28;20112;-71
2023/09/25 00:55:04;;;;;;;2.25;0.75;;;;;;;10.09;50.65;102254.88;5040880;28;20033;-71
2023/09/25 00:57:30;;;;;;;1.33;0.65;;;;;;;10.14;50.41;102253.91;5040904;28;20041;-71
2023/09/25 00:59:55;;;;;;;0.90;0.50;;;;;;;10.21;50.07;102252.94;5044736;28;20178;-71
2023/09/25 01:02:24;;;;;;;2.80;0.70;;;;;;;10.11;50.51;102255.72;5005813;28;20526;-72
2023/09/25 01:04:50;;;;;;;2.25;0.95;;;;;;;10.08;50.83;102259.25;5021274;28;20040;-72
2023/09/25 01:07:18;;;;;;;3.80;0.73;;;;;;;9.85;51.39;102248.28;5018318;28;20061;-73
2023/09/25 01:10:10;;;;;;;1.58;0.75;;;;;;;10.06;50.92;102239.22;5023110;28;20021;-73
2023/09/25 01:12:37;;;;;;;2.45;0.75;;;;;;;9.94;50.68;102248.13;5019330;28;20051;-72
2023/09/25 01:15:04;;;;;;;2.65;0.63;;;;;;;10.05;50.66;102248.81;5024380;28;20040;-73
2023/09/25 01:17:30;;;;;;;1.83;0.98;;;;;;;9.92;50.92;102250.78;5008547;28;20055;-73
2023/09/25 01:20:00;;;;;;;2.60;0.70;;;;;;;9.85;51.45;102250.88;5022765;28;20027;-73
2023/09/25 01:22:30;;;;;;;1.60;0.63;;;;;;;10.05;50.43;102251.44;5002666;28;20566;-73
2023/09/25 01:24:55;;;;;;;2.55;0.60;;;;;;;10.04;50.65;102257.56;5028257;28;20055;-74
2023/09/25 01:27:21;;;;;;;3.45;0.90;;;;;;;10.00;50.75;102256.72;4976697;28;21210;-73
2023/09/25 01:29:47;;;;;;;2.95;0.60;;;;;;;9.95;50.75;102252.47;5011408;28;20048;-73
2023/09/25 01:32:12;;;;;;;2.50;0.80;;;;;;;9.95;50.16;102247.25;5016644;28;20047;-74
2023/09/25 01:34:38;;;;;;;0.95;0.40;;;;;;;9.93;50.79;102244.66;5036758;28;20120;-74
2023/09/25 01:37:04;;;;;;;1.95;0.73;;;;;;;9.84;51.22;102243.94;5018100;28;20033;-73
2023/09/25 01:39:31;;;;;;;2.33;0.73;;;;;;;9.92;51.24;102242.06;5022856;28;20477;-73
2023/09/25 01:41:57;;;;;;;3.22;1.20;;;;;;;9.88;51.49;102240.38;5038584;28;20029;-73
2023/09/25 01:44:25;;;;;;;3.17;1.30;;;;;;;9.78;51.71;102234.41;5016345;28;20040;-73
2023/09/25 01:46:51;;;;;;;1.55;0.57;;;;;;;9.86;51.36;102234.34;5038696;28;20047;-73
2023/09/25 01:49:17;;;;;;;2.60;0.82;;;;;;;9.84;51.47;102233.50;5017443;28;20063;-73
2023/09/25 01:51:46;;;;;;;6.38;1.17;;;;;;;9.83;51.45;102237.84;5005107;28;20102;-71
2023/09/25 01:54:12;;;;;;;2.25;0.95;;;;;;;9.68;51.91;102238.91;5006258;28;20040;-71
2023/09/25 01:56:37;;;;;;;1.63;0.85;;;;;;;9.73;51.78;102231.88;5021278;28;20313;-71
2023/09/25 01:59:03;;;;;;;2.35;0.77;;;;;;;9.80;51.55;102228.31;5017322;28;20083;-71
2023/09/25 02:01:28;;;;;;;1.98;0.43;;;;;;;9.67;52.33;102237.19;5019339;28;20087;-71
2023/09/25 02:03:54;;;;;;;1.48;0.70;;;;;;;9.72;51.94;102227.56;5021019;28;20068;-70
2023/09/25 02:06:21;;;;;;;1.45;0.70;;;;;;;9.80;51.85;102227.47;5017511;28;20373;-70
2023/09/25 02:08:47;;;;;;;2.75;0.88;;;;;;;9.80;51.95;102228.31;4994128;28;20628;-71
2023/09/25 02:11:13;;;;;;;1.85;1.13;;;;;;;9.86;52.01;102229.97;5016941;28;20028;-70
2023/09/25 02:13:38;;;;;;;2.95;0.98;;;;;;;9.55;52.65;102230.38;5017072;28;20576;-71
2023/09/25 02:16:04;;;;;;;3.92;1.20;;;;;;;9.91;51.67;102224.69;5000088;28;20033;-71
2023/09/25 02:18:29;;;;;;;1.27;0.90;;;;;;;9.92;52.09;102221.16;4999867;28;20087;-70
2023/09/25 02:20:55;;;;;;;2.88;1.00;;;;;;;9.89;51.84;102227.31;5026065;28;20029;-71
2023/09/25 02:23:20;;;;;;;1.98;1.00;;;;;;;9.94;52.03;102229.84;4997363;28;21451;-69
2023/09/25 02:25:46;;;;;;;2.78;0.98;;;;;;;9.95;51.90;102232.44;5025470;28;20037;-71
2023/09/25 02:28:11;;;;;;;2.05;1.10;;;;;;;9.90;52.10;102228.16;5036402;28;20056;-70
2023/09/25 02:30:37;;;;;;;1.20;0.80;;;;;;;9.88;52.11;102227.31;5005928;28;20041;-67
2023/09/25 02:33:03;;;;;;;2.38;0.82;;;;;;;9.91;52.25;102216.84;4989955;28;20048;-67
2023/09/25 02:35:31;;;;;;;4.25;0.90;;;;;;;9.96;51.98;102215.03;5009518;28;20376;-67
2023/09/25 02:37:59;;;;;;;2.47;1.17;;;;;;;9.98;51.82;102216.72;5008666;28;20055;-66
2023/09/25 02:40:25;;;;;;;1.70;0.77;;;;;;;9.91;52.25;102222.94;5022727;28;20025;-67
2023/09/25 02:42:50;;;;;;;1.77;0.90;;;;;;;9.79;52.20;102221.38;5006779;28;20039;-70
2023/09/25 02:45:16;;;;;;;3.70;1.00;;;;;;;9.93;52.32;102228.13;5022558;28;20451;-69
2023/09/25 02:47:43;;;;;;;2.17;0.82;;;;;;;9.91;52.00;102219.47;5021996;28;20100;-69
2023/09/25 02:50:09;;;;;;;1.35;0.68;;;;;;;9.94;51.85;102227.22;5022847;28;20475;-70
2023/09/25 02:52:35;;;;;;;1.45;0.45;;;;;;;9.92;52.15;102227.28;5020589;28;20068;-69
2023/09/25 02:55:00;;;;;;;2.42;1.00;;;;;;;9.88;52.39;102225.59;5025366;28;20395;-69
2023/09/25 02:57:26;;;;;;;2.65;0.70;;;;;;;9.93;51.80;102228.13;5000346;28;20048;-68
2023/09/25 02:59:51;;;;;;;2.55;0.95;;;;;;;9.76;52.19;102225.75;5038036;28;20127;-73
2023/09/25 03:02:18;;;;;;;2.40;0.90;;;;;;;9.69;52.53;102224.97;4999673;28;20441;-70
2023/09/25 03:04:44;;;;;;;1.40;0.68;;;;;;;9.67;52.33;102224.13;5015785;28;20155;-69
2023/09/25 03:07:09;;;;;;;2.20;0.73;;;;;;;9.77;52.16;102223.13;5001991;28;20520;-70
2023/09/25 03:09:35;;;;;;;2.65;1.08;;;;;;;9.48;52.91;102226.16;5036835;28;20024;-70
2023/09/25 03:12:01;;;;;;;3.40;1.10;;;;;;;9.58;52.81;102221.66;4999357;28;20633;-70
2023/09/25 03:14:27;;;;;;;2.95;1.23;;;;;;;9.59;52.75;102221.63;5002466;28;20029;-72
2023/09/25 03:16:52;;;;;;;1.13;0.63;;;;;;;9.57;52.67;102220.78;5046713;28;20037;-72
2023/09/25 03:19:18;;;;;;;1.63;0.90;;;;;;;9.50;52.96;102213.94;5010317;28;20143;-72
2023/09/25 03:21:43;;;;;;;3.95;0.90;;;;;;;9.44;53.14;102218.38;5014151;28;20064;-72
2023/09/25 03:24:10;;;;;;;1.40;0.80;;;;;;;9.42;53.31;102217.53;4994898;28;20465;-70
2023/09/25 03:26:36;;;;;;;2.03;1.27;;;;;;;9.48;53.11;102209.63;5024708;28;20032;-72
2023/09/25 03:29:04;;;;;;;2.95;0.82;;;;;;;9.49;52.90;102217.41;5005382;28;20050;-70
2023/09/25 03:31:29;;;;;;;1.42;0.70;;;;;;;9.53;52.58;102218.25;5025246;28;20033;-72
2023/09/25 03:33:55;;;;;;;1.70;0.73;;;;;;;9.49;53.10;102217.41;5007141;28;20976;-73
2023/09/25 03:36:21;;;;;;;2.25;1.13;;;;;;;9.45;53.21;102213.13;5026031;28;20398;-71
2023/09/25 03:38:46;;;;;;;1.42;1.15;;;;;;;9.44;53.02;102224.47;5024633;28;20040;-72
2023/09/25 03:41:14;;;;;;;1.45;0.80;;;;;;;9.47;52.96;102215.72;5003521;28;20503;-73
2023/09/25 03:43:39;;;;;;;2.30;1.55;;;;;;;9.44;53.17;102226.22;4998825;28;20130;-71
2023/09/25 03:46:06;;;;;;;1.65;0.70;;;;;;;9.44;52.81;102228.81;5027093;28;20033;-73
2023/09/25 03:48:31;;;;;;;1.77;0.73;;;;;;;9.45;53.09;102220.94;5040014;28;20572;-71
2023/09/25 03:50:57;;;;;;;1.92;0.93;;;;;;;9.44;53.00;102218.38;5045166;28;20652;-70
2023/09/25 03:53:22;;;;;;;1.65;0.57;;;;;;;9.38;53.04;102214.09;5040644;28;20407;-70
2023/09/25 03:55:48;;;;;;;1.15;0.60;;;;;;;9.35;53.38;102208.94;5025976;28;20131;-70
2023/09/25 03:58:16;;;;;;;1.55;1.00;;;;;;;9.35;52.95;102215.00;5019718;28;20044;-68
2023/09/25 04:00:41;;;;;;;3.65;1.45;;;;;;;9.46;52.91;102211.41;5037640;28;20075;-68
2023/09/25 04:03:07;;;;;;;1.02;0.47;;;;;;;9.31;53.36;102213.31;5007191;28;20036;-68
2023/09/25 04:05:33;;;;;;;2.35;0.80;;;;;;;9.38;53.20;102214.97;5026509;28;20033;-69
2023/09/25 04:08:00;;;;;;;1.63;0.70;;;;;;;9.49;52.62;102211.34;5006294;28;20048;-70
2023/09/25 04:10:27;;;;;;;2.42;1.17;;;;;;;9.40;52.75;102215.78;5023352;28;20116;-71
2023/09/25 04:12:53;;;;;;;1.50;0.88;;;;;;;9.55;52.17;102206.03;5001042;28;20032;-71
2023/09/25 04:15:22;;;;;;;2.78;0.73;;;;;;;9.55;52.36;102206.03;5019334;28;20423;-68
2023/09/25 04:17:50;;;;;;;2.13;0.73;;;;;;;9.62;52.03;102194.63;5024223;28;20388;-69
2023/09/25 04:20:24;;;;;;;1.77;0.63;;;;;;;9.52;52.29;102186.06;5021886;28;20028;-69
2023/09/25 04:22:53;;;;;;;2.25;0.80;;;;;;;9.53;52.58;102192.16;5020906;28;20067;-71
2023/09/25 04:25:19;;;;;;;2.28;0.50;;;;;;;9.65;51.79;102197.19;5021845;28;20639;-70
2023/09/25 04:27:50;;;;;;;1.67;0.90;;;;;;;9.70;51.95;102200.59;5020818;28;20048;-69
2023/09/25 04:30:17;;;;;;;1.10;0.70;;;;;;;9.75;51.62;102193.56;5023365;28;20506;-69
2023/09/25 04:32:46;;;;;;;1.75;0.80;;;;;;;9.40;52.49;102191.47;5020627;28;20092;-69
2023/09/25 04:35:12;;;;;;;1.40;0.60;;;;;;;9.77;51.35;102190.94;5023604;28;20061;-71
2023/09/25 04:37:40;;;;;;;3.40;0.80;;;;;;;9.57;52.07;102183.41;5018819;28;20056;-68
2023/09/25 04:40:18;;;;;;;1.75;0.63;;;;;;;9.60;52.22;102189.41;5024894;28;20120;-70
2023/09/25 04:42:43;;;;;;;2.28;0.60;;;;;;;9.73;51.58;102184.88;4996959;28;20081;-70
2023/09/25 04:45:13;;;;;;;1.88;0.57;;;;;;;9.63;52.07;102188.50;5027781;28;20068;-70
2023/09/25 04:47:42;;;;;;;0.95;0.60;;;;;;;9.79;51.71;102187.44;5000943;28;20533;-71
2023/09/25 04:50:09;;;;;;;5.78;0.80;;;;;;;9.60;51.78;102180.72;5027943;28;20091;-74
2023/09/25 04:52:36;;;;;;;1.63;0.50;;;;;;;9.73;51.55;102177.03;5039041;28;20049;-75
2023/09/25 04:55:10;;;;;;;2.65;1.45;;;;;;;9.75;51.65;102171.81;5039840;28;20037;-74
2023/09/25 04:57:40;;;;;;;1.95;1.33;;;;;;;9.61;51.73;102179.88;5001923;28;20040;-73
2023/09/25 05:00:26;;;;;;;1.38;0.73;;;;;;;9.80;51.54;102178.69;5027120;28;20087;-73
2023/09/25 05:02:53;;;;;;;4.72;0.90;;;;;;;9.41;52.71;102177.53;5022271;28;20148;-72
2023/09/25 05:05:19;;;;;;;1.77;0.73;;;;;;;9.73;51.75;102174.44;5022230;28;20129;-71
2023/09/25 05:07:47;;;;;;;0.95;0.60;;;;;;;9.85;51.33;102172.53;5002221;28;20408;-71
2023/09/25 05:10:15;;;;;;;1.48;0.98;;;;;;;9.83;51.55;102176.94;5031760;28;20151;-70
2023/09/25 05:12:41;;;;;;;1.85;1.08;;;;;;;9.83;51.67;102179.53;4993898;28;20536;-70
2023/09/25 05:15:08;;;;;;;1.98;0.90;;;;;;;9.85;51.36;102177.78;5014550;28;20036;-67
2023/09/25 05:17:41;;;;;;;1.88;0.70;;;;;;;9.95;50.89;102185.44;4998616;28;20060;-67
2023/09/25 05:20:10;;;;;;;3.55;0.77;;;;;;;9.53;52.27;102194.75;5033732;28;20029;-67
2023/09/25 05:22:40;;;;;;;1.13;0.73;;;;;;;9.93;51.26;102194.19;5019038;28;21732;-65
2023/09/25 05:25:09;;;;;;;2.28;0.80;;;;;;;9.76;51.46;102197.03;5024077;28;20029;-68
2023/09/25 05:27:36;;;;;;;1.75;1.13;;;;;;;9.90;51.44;102187.25;4994448;28;20544;-68
2023/09/25 05:30:09;;;;;;;1.45;0.80;;;;;;;9.94;51.38;102194.13;5015822;28;20033;-68
2023/09/25 05:32:35;;;;;;;1.42;0.80;;;;;;;9.71;51.86;102194.47;4997878;28;20040;-68
2023/09/25 05:35:01;;;;;;;3.45;0.75;;;;;;;9.85;51.46;102183.00;5030923;28;20033;-70
2023/09/25 05:37:27;;;;;;;2.30;1.05;;;;;;;9.90;51.57;102194.22;4997501;28;20048;-73
2023/09/25 05:39:52;;;;;;;1.40;0.90;;;;;;;9.99;51.39;102201.91;5031208;28;20063;-71
2023/09/25 05:42:18;;;;;;;5.25;0.88;;;;;;;9.86;51.57;102197.78;5018146;28;20060;-71
2023/09/25 05:44:46;;;;;;;4.47;0.90;;;;;;;10.10;50.92;102205.22;5019457;28;20029;-71
2023/09/25 05:47:12;;;;;;;1.40;1.10;;;;;;;10.14;51.01;102199.03;5020554;28;20084;-71
2023/09/25 05:49:38;;;;;;;1.83;0.77;;;;;;;10.29;50.20;102197.91;5019565;28;21311;-72
2023/09/25 05:52:03;;;;;;;2.80;0.95;;;;;;;10.15;51.07;102203.38;4978841;28;20041;-72
2023/09/25 05:54:30;;;;;;;2.72;0.63;;;;;;;10.37;50.40;102197.75;5031754;28;20037;-68
2023/09/25 05:56:56;;;;;;;1.20;0.88;;;;;;;10.34;50.25;102200.44;5020141;28;20126;-69
2023/09/25 05:59:22;;;;;;;2.20;0.82;;;;;;;10.27;50.72;102201.44;5018174;28;20037;-69
2023/09/25 06:01:47;;;;;;;1.48;0.85;;;;;;;10.52;50.01;102213.16;5001713;28;20132;-69
2023/09/25 06:04:15;;;;;;;3.20;0.63;;;;;;;10.63;49.90;102211.22;5013574;28;20112;-68
2023/09/25 06:06:41;;;;;;;3.33;0.90;;;;;;;10.47;50.09;102209.78;5022452;28;20036;-68
2023/09/25 06:09:08;;;;;;;2.45;0.82;;;;;;;10.63;49.79;102215.59;5026126;28;20044;-66
2023/09/25 06:11:38;;;;;;;1.80;0.57;;;;;;;10.78;49.52;102215.31;5022578;28;20109;-67
2023/09/25 06:14:05;;;;;;;1.92;0.77;;;;;;;10.95;49.14;102216.75;5027577;28;20777;-67
2023/09/25 06:16:31;;;;;;;1.95;0.60;;;;;;;11.03;48.98;102226.16;5026892;28;20499;-66
2023/09/25 06:18:56;;;;;;;1.23;0.68;;;;;;;11.07;48.91;102216.50;4996617;28;20044;-67
2023/09/25 06:21:22;;;;;;;2.15;0.82;;;;;;;11.14;48.85;102222.47;5021999;28;20636;-67
2023/09/25 06:23:48;;;;;;;2.00;0.80;;;;;;;11.30;48.38;102220.38;5020237;28;20500;-68
2023/09/25 06:26:15;;;;;;;1.55;0.65;;;;;;;11.45;48.00;102220.91;5023472;28;20040;-64
2023/09/25 06:28:42;;;;;;;3.95;1.38;;;;;;;11.51;47.71;102214.69;5020085;28;20060;-66
2023/09/25 06:31:08;;;;;;;2.10;0.98;;;;;;;11.46;47.66;102220.03;5003264;28;20025;-66
2023/09/25 06:33:33;;;;;;;2.00;0.82;;;;;;;11.43;47.68;102220.06;5002429;28;20514;-66
2023/09/25 06:35:59;;;;;;;1.08;0.50;;;;;;;11.42;47.49;102217.53;5026699;28;20086;-69
2023/09/25 06:38:25;;;;;;;1.58;1.02;;;;;;;11.51;47.60;102221.66;5021778;28;20085;-65
2023/09/25 06:40:51;;;;;;;3.03;1.25;;;;;;;11.61;47.68;102223.19;5022695;28;20178;-68
2023/09/25 06:43:16;;;;;;;1.05;0.52;;;;;;;11.78;46.97;102225.47;5025737;28;20549;-65
2023/09/25 06:45:43;;;;;;;3.60;0.55;;;;;;;11.91;46.97;102226.00;5020558;28;20029;-65
2023/09/25 06:48:08;;;;;;;1.52;0.50;;;;;;;11.90;46.62;102230.38;5036816;28;20483;-64
2023/09/25 06:50:37;;;;;;;1.00;0.40;;;;;;;12.02;46.71;102223.97;5022570;28;20123;-65
2023/09/25 06:53:03;;;;;;;2.58;1.15;;;;;;;12.22;46.71;102237.47;5022651;28;20148;-64
2023/09/25 06:55:29;;;;;;;1.17;0.50;;;;;;;12.55;45.99;102231.38;5038063;28;20042;-69
2023/09/25 06:57:55;;;;;;;1.83;0.65;;;;;;;12.70;45.05;102223.97;5020484;28;20612;-66
2023/09/25 07:00:20;;;;;;;1.77;1.05;;;;;;;12.76;44.99;102217.72;5031469;28;20120;-70
2023/09/25 07:02:46;;;;;;;1.13;0.75;;;;;;;12.44;45.78;102218.53;5022093;28;20045;-70
2023/09/25 07:05:11;;;;;;;3.05;0.82;;;;;;;13.00;45.12;102220.53;5021537;28;20036;-70
2023/09/25 07:07:37;;;;;;;1.52;0.60;;;;;;;13.07;44.68;102212.47;4989800;28;20049;-70
2023/09/25 07:10:08;;;;;;;3.85;0.60;;;;;;;13.07;43.94;102222.97;5021229;28;20086;-70
2023/09/25 07:12:34;;;;;;;1.88;0.40;;;;;;;13.04;44.73;102216.94;5021344;28;20053;-71
2023/09/25 07:15:01;;;;;;;1.50;0.52;;;;;;;13.47;43.92;102221.75;5025754;28;20052;-68
2023/09/25 07:17:28;;;;;;;2.55;0.65;;;;;;;13.33;43.77;102229.19;5021701;28;20056;-69
2023/09/25 07:19:55;;;;;;;5.07;0.60;;;;;;;13.60;43.63;102221.41;5020712;28;20080;-70
2023/09/25 07:22:22;;;;;;;1.55;0.52;;;;;;;13.78;42.17;102220.81;5040234;28;20281;-70
2023/09/25 07:24:49;;;;;;;3.00;0.50;;;;;;;13.89;42.60;102217.84;5038729;28;20044;-69
2023/09/25 07:27:15;;;;;;;1.13;0.57;;;;;;;14.27;42.05;102219.16;5020840;28;20448;-68
2023/09/25 07:29:44;;;;;;;1.02;0.50;;;;;;;14.70;40.83;102227.34;5024121;28;21794;-70
2023/09/25 07:32:11;;;;;;;2.53;0.38;;;;;;;15.24;40.52;102228.03;5024441;28;20044;-71
2023/09/25 07:34:38;;;;;;;1.17;0.50;;;;;;;15.24;39.14;102217.50;5020247;28;20128;-70
2023/09/25 07:37:05;;;;;;;4.80;0.70;;;;;;;15.22;39.32;102220.19;5019957;28;20207;-69
2023/09/25 07:39:38;;;;;;;2.53;0.95;;;;;;;14.63;40.33;102229.34;5021800;28;20395;-69
2023/09/25 07:42:04;;;;;;;1.65;0.40;;;;;;;14.80;40.11;102209.47;5021683;28;20888;-68
2023/09/25 07:44:33;;;;;;;1.27;0.30;;;;;;;14.71;40.71;102219.41;5020653;28;20128;-69
2023/09/25 07:47:00;;;;;;;1.25;0.50;;;;;;;14.65;40.84;102217.00;5019732;28;20037;-69
2023/09/25 07:49:27;;;;;;;2.13;0.50;;;;;;;15.18;39.63;102224.69;5005795;28;20033;-68
2023/09/25 07:51:53;;;;;;;5.82;0.57;;;;;;;14.93;39.83;102223.91;5024453;28;20439;-68
2023/09/25 07:54:20;;;;;;;1.00;0.60;;;;;;;15.20;39.96;102221.16;5024289;28;20056;-67
2023/09/25 07:56:46;;;;;;;2.10;0.47;;;;;;;15.18;39.66;102229.94;5026581;28;21357;-67
2023/09/25 07:59:13;;;;;;;1.13;0.47;;;;;;;14.85;39.73;102231.22;5023435;28;20060;-66
2023/09/25 08:01:39;;;;;;;1.85;0.68;;;;;;;14.79;40.39;102226.16;5022403;28;20045;-67
2023/09/25 08:04:05;;;;;;;2.22;0.50;;;;;;;15.13;40.41;102226.66;5018726;28;20045;-67
2023/09/25 08:06:31;;;;;;;1.40;0.60;;;;;;;15.29;39.38;102231.38;5021292;28;20595;-69
2023/09/25 08:08:57;;;;;;;3.17;0.35;;;;;;;15.51;39.39;102234.88;4993927;28;20091;-68
2023/09/25 08:11:24;;;;;;;1.67;0.90;;;;;;;15.55;38.88;102228.56;5023517;28;20025;-67
2023/09/25 08:13:50;;;;;;;1.98;0.50;;;;;;;15.68;38.58;102225.44;5020805;28;20036;-69
2023/09/25 08:16:22;;;;;;;1.88;0.40;;;;;;;15.88;38.04;102219.34;5023472;28;20109;-67
2023/09/25 08:18:50;;;;;;;0.75;0.20;;;;;;;15.84;38.86;102215.13;5020378;28;20221;-67
2023/09/25 08:21:16;;;;;;;0.93;0.60;;;;;;;15.74;38.00;102218.13;5021308;28;20215;-67
2023/09/25 08:23:42;;;;;;;1.98;0.40;;;;;;;15.64;37.79;102215.94;5028411;28;20315;-67
2023/09/25 08:26:07;;;;;;;0.90;0.30;;;;;;;15.64;38.48;102216.81;5017437;28;20032;-67
2023/09/25 08:28:34;;;;;;;1.20;0.40;;;;;;;15.70;38.30;102218.31;5012299;28;20560;-67
2023/09/25 08:31:02;;;;;;;1.00;0.30;;;;;;;15.98;38.99;102213.63;5014121;28;20120;-67
2023/09/25 08:33:28;;;;;;;1.08;0.40;;;;;;;16.09;38.15;102212.38;5017110;28;20069;-68
2023/09/25 08:35:53;;;;;;;2.35;0.30;;;;;;;16.17;37.42;102211.09;5037245;28;20043;-67
2023/09/25 08:38:19;;;;;;;1.38;0.40;;;;;;;16.22;37.47;102218.84;5016246;28;20047;-67
2023/09/25 08:40:48;;;;;;;2.75;0.45;;;;;;;16.40;37.63;102212.75;5018129;28;22376;-67
2023/09/25 08:43:14;;;;;;;2.30;0.30;;;;;;;16.68;37.25;102216.81;5034636;28;20040;-67
2023/09/25 08:45:41;;;;;;;2.58;0.40;;;;;;;16.44;37.48;102212.63;5019491;28;20578;-69
2023/09/25 08:48:10;;;;;;;2.22;0.50;;;;;;;16.75;36.89;102207.72;5019995;28;20064;-69
2023/09/25 08:50:40;;;;;;;1.48;0.50;;;;;;;16.36;37.29;102213.81;5019804;28;20045;-68
2023/09/25 08:53:06;;;;;;;1.25;0.20;;;;;;;16.21;37.53;102207.41;5022125;28;20131;-69
2023/09/25 08:55:33;;;;;;;3.08;0.40;;;;;;;16.16;37.93;102213.81;5017947;28;20060;-68
2023/09/25 08:58:00;;;;;;;3.53;0.50;;;;;;;15.95;37.71;102221.69;5021936;28;20050;-69
2023/09/25 09:00:29;;;;;;;1.83;0.50;;;;;;;15.92;38.44;102210.41;5021488;28;20032;-69
2023/09/25 09:02:54;;;;;;;1.02;0.40;;;;;;;16.28;37.97;102200.09;5023991;28;20049;-68
2023/09/25 09:05:20;;;;;;;1.60;0.70;;;;;;;16.29;37.72;102199.19;5017217;28;20067;-68
2023/09/25 09:08:16;;;;;;;1.20;0.40;;;;;;;16.28;38.35;102208.00;5030592;28;20430;-69
2023/09/25 09:10:43;;;;;;;1.85;0.25;;;;;;;16.39;37.84;102200.47;5004683;28;20048;-68
2023/09/25 09:13:11;;;;;;;0.93;0.60;;;;;;;16.47;37.14;102201.94;5017859;28;20408;-68
2023/09/25 09:15:38;;;;;;;2.47;0.57;;;;;;;16.36;37.71;102202.41;5021276;28;20033;-68
2023/09/25 09:18:21;;;;;;;1.08;0.30;;;;;;;16.47;37.61;102196.66;5017651;28;20140;-67
2023/09/25 09:20:47;;;;;;;3.13;0.40;;;;;;;16.79;37.60;102197.88;5018410;28;20049;-68
2023/09/25 09:23:13;;;;;;;0.88;0.40;;;;;;;16.45;37.20;102199.38;5014299;28;20055;-68
2023/09/25 09:25:38;;;;;;;1.27;0.35;;;;;;;16.25;37.53;102194.97;5015370;28;20762;-68
2023/09/25 09:28:04;;;;;;;4.93;0.68;;;;;;;16.24;37.66;102193.22;5020595;28;20045;-68
2023/09/25 09:30:30;;;;;;;1.17;0.20;;;;;;;16.47;37.35;102196.66;5013958;28;20068;-67
2023/09/25 09:32:57;;;;;;;1.38;0.40;;;;;;;16.23;37.18;102182.75;5017329;28;20145;-67
2023/09/25 09:35:25;;;;;;;3.58;0.40;;;;;;;16.28;37.69;102178.97;5023910;28;20040;-68
2023/09/25 09:37:52;;;;;;;1.65;0.50;;;;;;;16.61;36.91;102186.34;5015788;28;20041;-67
2023/09/25 09:40:20;;;;;;;2.15;0.90;;;;;;;16.70;37.08;102187.72;5021324;28;20498;-65
2023/09/25 09:42:47;;;;;;;3.67;1.00;;;;;;;17.43;36.50;102186.94;5030558;28;20138;-65
2023/09/25 09:45:13;;;;;;;2.53;0.20;;;;;;;17.24;35.59;102188.75;5019702;28;20033;-66
2023/09/25 09:47:44;;;;;;;1.52;0.68;;;;;;;17.23;36.58;102192.34;4997006;28;20045;-65
2023/09/25 09:50:15;;;;;;;4.07;0.75;;;;;;;17.04;36.42;102181.75;5019275;28;20493;-64
2023/09/25 09:52:42;;;;;;;1.33;0.38;;;;;;;16.93;36.93;102178.75;5016731;28;20086;-67
2023/09/25 09:55:09;;;;;;;2.08;0.28;;;;;;;16.61;37.20;102175.78;5020746;28;20168;-64
2023/09/25 09:57:35;;;;;;;1.25;0.40;;;;;;;16.84;36.96;102180.03;5014862;28;20072;-66
2023/09/25 10:00:01;;;;;;;1.40;0.50;;;;;;;17.18;36.88;102181.09;5036201;28;20034;-65
2023/09/25 10:02:31;;;;;;;0.93;0.40;;;;;;;16.88;36.81;102178.13;5016271;28;20055;-64
2023/09/25 10:04:57;;;;;;;1.77;0.40;;;;;;;16.89;37.51;102177.19;5035178;28;20076;-65
2023/09/25 10:07:23;;;;;;;1.45;0.30;;;;;;;17.38;36.05;102180.16;5017143;28;20102;-67
2023/09/25 10:10:02;;;;;;;2.80;0.43;;;;;;;17.63;35.84;102179.88;5016655;28;20037;-66
2023/09/25 10:12:50;;;;;;;1.63;0.30;;;;;;;17.15;36.11;102174.19;5014767;28;20056;-67
2023/09/25 10:15:22;;;;;;;1.90;0.50;;;;;;;17.28;36.69;102173.63;5018804;28;20052;-66
2023/09/25 10:17:48;;;;;;;1.15;0.22;;;;;;;17.44;36.38;102171.94;5015504;28;20444;-67
2023/09/25 10:20:34;;;;;;;0.80;0.20;;;;;;;17.77;36.41;102176.53;5015746;28;20550;-65
2023/09/25 10:23:11;;;;;;;1.35;0.30;;;;;;;17.64;36.29;102177.13;5032717;28;20573;-67
2023/09/25 10:25:46;;;;;;;1.77;0.30;;;;;;;17.23;37.23;102187.91;5015889;28;20037;-67
2023/09/25 10:28:32;;;;;;;0.85;0.40;;;;;;;17.21;36.63;102188.91;5016467;28;20093;-67
2023/09/25 10:30:59;;;;;;;2.30;0.40;;;;;;;17.22;36.23;102185.31;5019238;28;20033;-67
2023/09/25 10:33:31;;;;;;;1.60;0.30;;;;;;;17.36;37.34;102177.59;5012976;28;20041;-66
2023/09/25 10:36:06;;;;;;;1.60;0.30;;;;;;;17.56;36.97;102184.59;5021214;28;20039;-67
2023/09/25 10:38:36;;;;;;;1.10;0.40;;;;;;;17.63;36.84;102187.78;5021576;28;22054;-65
2023/09/25 10:41:08;;;;;;;0.90;0.40;;;;;;;17.64;37.85;102190.34;5020513;28;20041;-65
2023/09/25 10:43:34;;;;;;;;;;;;;;;17.69;37.26;102194.53;5015322;28;20125;-63
2023/09/25 10:46:01;;;;;;;0.73;0.30;;;;;;;17.51;36.87;102194.50;5034561;28;19970;-67
2023/09/25 10:48:27;;;;;;;0.80;0.30;;;;;;;17.20;36.93;102192.47;5020710;28;20041;-65
2023/09/25 10:50:54;;;;;;;2.50;0.32;;;;;;;17.47;36.82;102190.31;5019919;28;20112;-65
2023/09/25 10:53:19;;;;;;;2.45;0.75;;;;;;;17.34;36.88;102179.47;5022443;28;20279;-64
2023/09/25 10:55:47;;;;;;;2.05;0.40;;;;;;;17.53;36.24;102183.88;5023372;28;20674;-64
2023/09/25 10:58:13;;;;;;;2.05;0.60;;;;;;;17.63;36.19;102179.88;5028463;28;20503;-65
2023/09/25 11:00:40;;;;;;;1.65;0.30;;;;;;;18.34;34.87;102190.38;5002235;28;20114;-64
2023/09/25 11:03:06;;;;;;;3.10;0.30;;;;;;;18.45;35.63;102189.81;5028170;28;20068;-65
2023/09/25 11:05:35;;;;;;;1.10;0.30;;;;;;;18.70;34.52;102194.66;5022326;28;20049;-65
2023/09/25 11:08:03;;;;;;;2.72;0.32;;;;;;;18.56;34.50;102191.88;5021995;28;20045;-64
2023/09/25 11:10:34;;;;;;;2.50;0.25;;;;;;;18.30;34.25;102196.78;5021222;28;20037;-64
2023/09/25 11:13:00;;;;;;;1.63;0.40;;;;;;;19.08;33.94;102202.34;5038272;28;20044;-65
2023/09/25 11:15:27;;;;;;;0.77;0.40;;;;;;;19.05;33.55;102191.91;5023895;28;20132;-65
2023/09/25 11:17:55;;;;;;;0.88;0.47;;;;;;;19.06;32.98;102197.13;5017059;28;20042;-65
2023/09/25 11:20:32;;;;;;;2.42;0.50;;;;;;;19.30;33.35;102201.97;5023982;28;20024;-66
2023/09/25 11:23:09;;;;;;;3.22;0.20;;;;;;;19.63;33.16;102201.88;5015794;28;20045;-64
2023/09/25 11:25:44;;;;;;;1.75;0.60;;;;;;;19.36;34.01;102203.44;5025420;28;20033;-66
2023/09/25 11:28:27;;;;;;;3.72;0.40;;;;;;;19.47;33.23;102198.38;5019808;28;20044;-64
2023/09/25 11:30:53;;;;;;;5.53;0.50;;;;;;;19.83;33.38;102202.53;5022958;28;20037;-65